Time,TemperatureF,DewpointF,PressureIn,WindDirection,WindDirectionDegrees,WindSpeedMPH,WindSpeedGustMPH,Humidity,HourlyPrecipIn,Conditions,Clouds,dailyrainin,SoftwareType,DateUTC
2013-03-27 00:02:00,38.0,33.0,-100.00,SSE,154,6.0,8.0,84,0.00,,,-99.99,,2013-03-27 06:02:00,
2013-03-27 00:12:00,37.0,33.0,-100.00,SE,137,4.0,5.0,85,0.00,,,-99.99,,2013-03-27 06:12:00,
2013-03-27 00:22:00,37.0,33.0,-100.00,SE,141,3.0,4.0,86,0.00,,,-99.99,,2013-03-27 06:22:00,
2013-03-27 00:32:00,37.0,33.0,-100.00,SE,141,3.0,4.0,86,0.00,,,-99.99,,2013-03-27 06:32:00,
2013-03-27 00:42:00,37.0,33.0,-100.00,SE,141,3.0,4.0,86,0.00,,,-99.99,,2013-03-27 06:42:00,
2013-03-27 00:52:00,37.0,33.0,-100.00,SE,137,3.0,4.0,85,0.00,,,-99.99,,2013-03-27 06:52:00,
2013-03-27 01:02:00,37.0,33.0,-100.00,SE,137,3.0,4.0,85,0.00,,,-99.99,,2013-03-27 07:02:00,
2013-03-27 01:12:00,38.0,33.0,-100.00,SSW,192,3.0,4.0,83,0.00,,,-99.99,,2013-03-27 07:12:00,
2013-03-27 01:22:00,38.0,34.0,-100.00,South,171,4.0,5.0,84,0.00,,,-99.99,,2013-03-27 07:22:00,
2013-03-27 01:32:00,38.0,34.0,-100.00,South,171,4.0,5.0,84,0.00,,,-99.99,,2013-03-27 07:32:00,
2013-03-27 02:02:00,37.0,33.0,-100.00,SE,134,4.0,6.0,85,0.00,,,-99.99,,2013-03-27 08:02:00,
2013-03-27 02:12:00,37.0,33.0,-100.00,SE,134,4.0,6.0,85,0.00,,,-99.99,,2013-03-27 08:12:00,
2013-03-27 02:22:00,36.0,32.0,-100.00,South,175,1.0,2.0,86,0.00,,,-99.99,,2013-03-27 08:22:00,
2013-03-27 02:32:00,36.0,32.0,-100.00,South,175,1.0,2.0,86,0.00,,,-99.99,,2013-03-27 08:32:00,
2013-03-27 02:43:00,36.0,32.0,-100.00,South,175,1.0,2.0,86,0.00,,,-99.99,,2013-03-27 08:43:00,
2013-03-27 02:52:00,36.0,32.0,-100.00,SSE,162,2.0,3.0,85,0.00,,,-99.99,,2013-03-27 08:52:00,
2013-03-27 03:01:00,36.0,32.0,-100.00,SSE,162,2.0,3.0,85,0.00,,,-99.99,,2013-03-27 09:01:00,
2013-03-27 03:12:00,36.0,33.0,-100.00,SSE,147,3.0,4.0,86,0.00,,,-99.99,,2013-03-27 09:12:00,
2013-03-27 03:22:00,37.0,33.0,-100.00,SE,145,3.0,4.0,85,0.00,,,-99.99,,2013-03-27 09:22:00,
2013-03-27 03:32:00,37.0,33.0,-100.00,SE,145,3.0,4.0,85,0.00,,,-99.99,,2013-03-27 09:32:00,
2013-03-27 03:42:00,37.0,33.0,-100.00,South,184,4.0,5.0,86,0.00,,,-99.99,,2013-03-27 09:42:00,
2013-03-27 03:52:00,37.0,33.0,-100.00,SSE,155,3.0,4.0,85,0.00,,,-99.99,,2013-03-27 09:52:00,
2013-03-27 04:02:00,37.0,33.0,-100.00,SSE,155,3.0,4.0,85,0.00,,,-99.99,,2013-03-27 10:02:00,
2013-03-27 04:12:00,38.0,33.0,-100.00,SE,128,2.0,4.0,84,0.00,,,-99.99,,2013-03-27 10:12:00,
2013-03-27 04:22:00,38.0,33.0,-100.00,SE,128,2.0,4.0,84,0.00,,,-99.99,,2013-03-27 10:22:00,
2013-03-27 04:42:00,37.0,33.0,-100.00,SW,232,1.0,3.0,85,0.00,,,-99.99,,2013-03-27 10:42:00,
2013-03-27 04:53:00,37.0,33.0,-100.00,SSW,195,4.0,5.0,85,0.00,,,-99.99,,2013-03-27 10:53:00,
2013-03-27 05:02:00,37.0,33.0,-100.00,SSW,195,4.0,5.0,85,0.00,,,-99.99,,2013-03-27 11:02:00,
2013-03-27 05:11:00,36.0,32.0,-100.00,SSW,200,1.0,3.0,86,0.00,,,-99.99,,2013-03-27 11:11:00,
2013-03-27 05:42:00,36.0,33.0,-100.00,SSW,208,3.0,4.0,87,0.00,,,-99.99,,2013-03-27 11:42:00,
2013-03-27 05:52:00,36.0,32.0,-100.00,SSW,199,3.0,4.0,87,0.00,,,-99.99,,2013-03-27 11:52:00,
2013-03-27 06:02:00,36.0,32.0,-100.00,SSW,199,3.0,4.0,87,0.00,,,-99.99,,2013-03-27 12:02:00,
2013-03-27 06:11:00,36.0,33.0,-100.00,East,88,2.0,2.0,88,0.00,,,-99.99,,2013-03-27 12:11:00,
2013-03-27 06:22:00,35.0,32.0,-100.00,SSE,155,2.0,4.0,89,0.00,,,-99.99,,2013-03-27 12:22:00,
2013-03-27 06:32:00,35.0,32.0,-100.00,SSE,155,2.0,4.0,89,0.00,,,-99.99,,2013-03-27 12:32:00,
2013-03-27 06:42:00,35.0,32.0,-100.00,SSE,155,2.0,4.0,89,0.00,,,-99.99,,2013-03-27 12:42:00,
2013-03-27 06:52:00,36.0,33.0,-100.00,SSW,209,2.0,2.0,88,0.00,,,-99.99,,2013-03-27 12:52:00,
2013-03-27 07:02:00,36.0,33.0,-100.00,SSW,209,2.0,2.0,88,0.00,,,-99.99,,2013-03-27 13:02:00,
2013-03-27 07:12:00,36.0,33.0,-100.00,SSW,205,4.0,5.0,88,0.00,,,-99.99,,2013-03-27 13:12:00,
2013-03-27 07:22:00,35.0,32.0,-100.00,SSW,199,5.0,6.0,89,0.00,,,-99.99,,2013-03-27 13:22:00,
2013-03-27 07:32:00,35.0,32.0,-100.00,SSW,199,5.0,6.0,89,0.00,,,-99.99,,2013-03-27 13:32:00,
2013-03-27 07:42:00,35.0,32.0,-100.00,SSW,199,5.0,6.0,89,0.00,,,-99.99,,2013-03-27 13:42:00,
2013-03-27 07:53:00,35.0,33.0,-100.00,SSW,199,4.0,6.0,89,0.00,,,-99.99,,2013-03-27 13:53:00,
2013-03-27 08:02:00,35.0,33.0,-100.00,SSW,199,4.0,6.0,89,0.00,,,-99.99,,2013-03-27 14:02:00,
2013-03-27 08:11:00,37.0,34.0,-100.00,South,176,4.0,6.0,88,0.00,,,-99.99,,2013-03-27 14:11:00,
2013-03-27 08:22:00,37.0,33.0,-100.00,SW,219,2.0,3.0,86,0.00,,,-99.99,,2013-03-27 14:22:00,
2013-03-27 08:32:00,37.0,33.0,-100.00,SW,219,2.0,3.0,86,0.00,,,-99.99,,2013-03-27 14:32:00,
2013-03-27 08:42:00,37.0,33.0,-100.00,SW,219,2.0,3.0,86,0.00,,,-99.99,,2013-03-27 14:42:00,
2013-03-27 08:52:00,37.0,34.0,-100.00,ENE,68,1.0,2.0,88,0.00,,,-99.99,,2013-03-27 14:52:00,
2013-03-27 09:02:00,37.0,34.0,-100.00,ENE,68,1.0,2.0,88,0.00,,,-99.99,,2013-03-27 15:02:00,
2013-03-27 09:11:00,38.0,34.0,-100.00,NNW,340,2.0,4.0,88,0.00,,,-99.99,,2013-03-27 15:11:00,
2013-03-27 09:22:00,38.0,34.0,-100.00,West,261,2.0,2.0,85,0.00,,,-99.99,,2013-03-27 15:22:00,
2013-03-27 09:32:00,38.0,34.0,-100.00,West,261,2.0,2.0,85,0.00,,,-99.99,,2013-03-27 15:32:00,
2013-03-27 09:42:00,38.0,34.0,-100.00,West,265,1.0,2.0,84,0.00,,,-99.99,,2013-03-27 15:42:00,
2013-03-27 09:52:00,39.0,35.0,-100.00,SW,217,0.0,0.0,84,0.00,,,-99.99,,2013-03-27 15:52:00,
2013-03-27 10:02:00,39.0,35.0,-100.00,SW,217,0.0,0.0,84,0.00,,,-99.99,,2013-03-27 16:02:00,
2013-03-27 10:12:00,40.0,35.0,-100.00,SW,229,0.0,1.0,83,0.00,,,-99.99,,2013-03-27 16:12:00,
2013-03-27 10:22:00,41.0,35.0,-100.00,WSW,244,2.0,3.0,81,0.00,,,-99.99,,2013-03-27 16:22:00,
2013-03-27 10:32:00,41.0,35.0,-100.00,WSW,244,2.0,3.0,81,0.00,,,-99.99,,2013-03-27 16:32:00,
2013-03-27 10:42:00,41.0,35.0,-100.00,SSW,199,4.0,6.0,79,0.00,,,-99.99,,2013-03-27 16:42:00,
2013-03-27 10:52:00,41.0,35.0,-100.00,SSW,199,4.0,6.0,79,0.00,,,-99.99,,2013-03-27 16:52:00,
2013-03-27 11:02:00,41.0,35.0,-100.00,SSW,199,4.0,6.0,79,0.00,,,-99.99,,2013-03-27 17:02:00,
2013-03-27 11:11:00,42.0,35.0,-100.00,SSW,209,4.0,5.0,77,0.00,,,-99.99,,2013-03-27 17:11:00,
2013-03-27 11:22:00,45.0,36.0,-100.00,WSW,247,2.0,3.0,71,0.00,,,-99.99,,2013-03-27 17:22:00,
2013-03-27 11:32:00,45.0,36.0,-100.00,WSW,247,2.0,3.0,71,0.00,,,-99.99,,2013-03-27 17:32:00,
2013-03-27 11:44:00,45.0,36.0,-100.00,North,1,2.0,4.0,70,0.00,,,-99.99,,2013-03-27 17:44:00,
2013-03-27 11:52:00,46.0,36.0,-100.00,NNW,329,4.0,6.0,68,0.00,,,-99.99,,2013-03-27 17:52:00,
2013-03-27 12:02:00,46.0,36.0,-100.00,NNW,329,4.0,6.0,68,0.00,,,-99.99,,2013-03-27 18:02:00,
2013-03-27 12:22:00,47.0,36.0,-100.00,NNW,332,3.0,4.0,66,0.00,,,-99.99,,2013-03-27 18:22:00,
2013-03-27 12:32:00,47.0,36.0,-100.00,NNW,332,3.0,4.0,66,0.00,,,-99.99,,2013-03-27 18:32:00,
2013-03-27 12:42:00,48.0,37.0,-100.00,NW,319,4.0,5.0,65,0.00,,,-99.99,,2013-03-27 18:42:00,
2013-03-27 12:53:00,48.0,37.0,-100.00,NW,319,4.0,5.0,65,0.00,,,-99.99,,2013-03-27 18:53:00,
2013-03-27 13:02:00,48.0,37.0,-100.00,NW,319,4.0,5.0,65,0.00,,,-99.99,,2013-03-27 19:02:00,
2013-03-27 13:12:00,49.0,38.0,-100.00,NE,35,3.0,5.0,65,0.00,,,-99.99,,2013-03-27 19:12:00,
2013-03-27 13:21:00,50.0,38.0,-100.00,NW,323,4.0,6.0,64,0.00,,,-99.99,,2013-03-27 19:21:00,
2013-03-27 13:32:00,50.0,38.0,-100.00,NW,323,4.0,6.0,64,0.00,,,-99.99,,2013-03-27 19:32:00,
2013-03-27 13:42:00,51.0,38.0,-100.00,North,10,3.0,6.0,60,0.00,,,-99.99,,2013-03-27 19:42:00,
2013-03-27 13:52:00,53.0,38.0,-100.00,NW,316,3.0,4.0,55,0.00,,,-99.99,,2013-03-27 19:52:00,
2013-03-27 14:02:00,53.0,38.0,-100.00,NW,316,3.0,4.0,55,0.00,,,-99.99,,2013-03-27 20:02:00,
2013-03-27 14:12:00,54.0,36.0,-100.00,East,96,4.0,6.0,50,0.00,,,-99.99,,2013-03-27 20:12:00,
2013-03-27 14:22:00,54.0,37.0,-100.00,NW,313,2.0,4.0,53,0.00,,,-99.99,,2013-03-27 20:22:00,
2013-03-27 14:32:00,54.0,37.0,-100.00,NW,313,2.0,4.0,53,0.00,,,-99.99,,2013-03-27 20:32:00,
2013-03-27 14:42:00,55.0,35.0,-100.00,NW,323,6.0,10.0,48,0.00,,,-99.99,,2013-03-27 20:42:00,
2013-03-27 14:52:00,56.0,34.0,-100.00,West,270,2.0,4.0,43,0.00,,,-99.99,,2013-03-27 20:52:00,
2013-03-27 15:02:00,56.0,34.0,-100.00,West,270,2.0,4.0,43,0.00,,,-99.99,,2013-03-27 21:02:00,
2013-03-27 15:12:00,56.0,35.0,-100.00,ENE,59,3.0,4.0,43,0.00,,,-99.99,,2013-03-27 21:12:00,
2013-03-27 15:22:00,56.0,35.0,-100.00,NNW,333,7.0,9.0,46,0.00,,,-99.99,,2013-03-27 21:22:00,
2013-03-27 15:32:00,56.0,35.0,-100.00,NNW,333,7.0,9.0,46,0.00,,,-99.99,,2013-03-27 21:32:00,
2013-03-27 15:42:00,56.0,35.0,-100.00,NNW,333,7.0,9.0,46,0.00,,,-99.99,,2013-03-27 21:42:00,
2013-03-27 15:52:00,56.0,34.0,-100.00,NW,323,5.0,6.0,43,0.00,,,-99.99,,2013-03-27 21:52:00,
2013-03-27 16:02:00,56.0,34.0,-100.00,NW,323,5.0,6.0,43,0.00,,,-99.99,,2013-03-27 22:02:00,
2013-03-27 16:12:00,57.0,34.0,-100.00,West,263,4.0,6.0,42,0.00,,,-99.99,,2013-03-27 22:12:00,
2013-03-27 16:23:00,56.0,34.0,-100.00,East,92,3.0,6.0,42,0.00,,,-99.99,,2013-03-27 22:23:00,
2013-03-27 16:32:00,56.0,34.0,-100.00,East,92,3.0,6.0,42,0.00,,,-99.99,,2013-03-27 22:32:00,
2013-03-27 16:42:00,56.0,34.0,-100.00,East,92,3.0,6.0,42,0.00,,,-99.99,,2013-03-27 22:42:00,
2013-03-27 16:52:00,58.0,34.0,-100.00,SSE,160,3.0,5.0,41,0.00,,,-99.99,,2013-03-27 22:52:00,
2013-03-27 17:02:00,58.0,34.0,-100.00,SSE,160,3.0,5.0,41,0.00,,,-99.99,,2013-03-27 23:02:00,
2013-03-27 17:12:00,59.0,30.0,-100.00,NNW,333,5.0,8.0,34,0.00,,,-99.99,,2013-03-27 23:12:00,
2013-03-27 17:22:00,58.0,30.0,-100.00,NW,323,4.0,6.0,33,0.00,,,-99.99,,2013-03-27 23:22:00,
2013-03-27 17:32:00,58.0,30.0,-100.00,NW,323,4.0,6.0,33,0.00,,,-99.99,,2013-03-27 23:32:00,
2013-03-27 17:42:00,58.0,30.0,-100.00,NW,323,4.0,6.0,33,0.00,,,-99.99,,2013-03-27 23:42:00,
2013-03-27 17:52:00,58.0,30.0,-100.00,NNW,332,6.0,8.0,34,0.00,,,-99.99,,2013-03-27 23:52:00,
2013-03-27 18:01:00,58.0,30.0,-100.00,NNW,332,6.0,8.0,34,0.00,,,-99.99,,2013-03-28 00:01:00,
2013-03-27 18:12:00,58.0,28.0,-100.00,North,356,6.0,9.0,32,0.00,,,-99.99,,2013-03-28 00:12:00,
2013-03-27 18:22:00,56.0,29.0,-100.00,NNE,13,5.0,8.0,35,0.00,,,-99.99,,2013-03-28 00:22:00,
2013-03-27 18:43:00,57.0,27.0,-100.00,North,360,6.0,8.0,32,0.00,,,-99.99,,2013-03-28 00:43:00,
2013-03-27 18:52:00,57.0,27.0,-100.00,North,360,6.0,8.0,32,0.00,,,-99.99,,2013-03-28 00:52:00,
2013-03-27 19:01:00,57.0,27.0,-100.00,North,360,6.0,8.0,32,0.00,,,-99.99,,2013-03-28 01:01:00,
2013-03-27 19:11:00,57.0,28.0,-100.00,NNE,18,5.0,8.0,33,0.00,,,-99.99,,2013-03-28 01:11:00,
2013-03-27 19:22:00,56.0,29.0,-100.00,North,10,1.0,2.0,35,0.00,,,-99.99,,2013-03-28 01:22:00,
2013-03-27 19:32:00,56.0,29.0,-100.00,North,10,1.0,2.0,35,0.00,,,-99.99,,2013-03-28 01:32:00,
2013-03-27 19:42:00,56.0,29.0,-100.00,NE,54,3.0,4.0,35,0.00,,,-99.99,,2013-03-28 01:42:00,
2013-03-27 19:52:00,55.0,30.0,-100.00,East,92,2.0,3.0,38,0.00,,,-99.99,,2013-03-28 01:52:00,
2013-03-27 20:02:00,55.0,30.0,-100.00,East,92,2.0,3.0,38,0.00,,,-99.99,,2013-03-28 02:02:00,
2013-03-27 20:12:00,54.0,33.0,-100.00,East,99,3.0,5.0,45,0.00,,,-99.99,,2013-03-28 02:12:00,
2013-03-27 20:22:00,54.0,33.0,-100.00,East,99,3.0,5.0,45,0.00,,,-99.99,,2013-03-28 02:22:00,
2013-03-27 20:32:00,54.0,33.0,-100.00,East,99,3.0,5.0,45,0.00,,,-99.99,,2013-03-28 02:32:00,
2013-03-27 20:42:00,54.0,33.0,-100.00,East,99,3.0,5.0,45,0.00,,,-99.99,,2013-03-28 02:42:00,
2013-03-27 21:02:00,51.0,35.0,-100.00,SE,126,7.0,8.0,53,0.00,,,-99.99,,2013-03-28 03:02:00,
2013-03-27 21:12:00,50.0,34.0,-100.00,SE,126,8.0,10.0,54,0.00,,,-99.99,,2013-03-28 03:12:00,
2013-03-27 21:22:00,49.0,34.0,-100.00,ESE,121,7.0,11.0,54,0.00,,,-99.99,,2013-03-28 03:22:00,
2013-03-27 21:33:00,49.0,34.0,-100.00,ESE,121,7.0,11.0,54,0.00,,,-99.99,,2013-03-28 03:33:00,
2013-03-27 21:42:00,47.0,33.0,-100.00,ESE,117,6.0,7.0,57,0.00,,,-99.99,,2013-03-28 03:42:00,
2013-03-27 21:53:00,47.0,33.0,-100.00,SE,136,5.0,6.0,59,0.00,,,-99.99,,2013-03-28 03:53:00,
2013-03-27 22:02:00,47.0,33.0,-100.00,SE,136,5.0,6.0,59,0.00,,,-99.99,,2013-03-28 04:02:00,
2013-03-27 22:12:00,47.0,33.0,-100.00,SE,136,5.0,6.0,59,0.00,,,-99.99,,2013-03-28 04:12:00,
2013-03-27 22:22:00,47.0,33.0,-100.00,SSE,148,6.0,7.0,59,0.00,,,-99.99,,2013-03-28 04:22:00,
2013-03-27 22:32:00,47.0,33.0,-100.00,SSE,148,6.0,7.0,59,0.00,,,-99.99,,2013-03-28 04:32:00,
2013-03-27 22:42:00,46.0,33.0,-100.00,SSE,150,5.0,6.0,60,0.00,,,-99.99,,2013-03-28 04:42:00,
2013-03-27 22:52:00,46.0,33.0,-100.00,SSE,157,4.0,7.0,60,0.00,,,-99.99,,2013-03-28 04:52:00,
2013-03-27 23:02:00,46.0,33.0,-100.00,SSE,157,4.0,7.0,60,0.00,,,-99.99,,2013-03-28 05:02:00,
2013-03-27 23:12:00,47.0,33.0,-100.00,SSE,161,7.0,9.0,59,0.00,,,-99.99,,2013-03-28 05:12:00,
2013-03-27 23:22:00,47.0,33.0,-100.00,SSE,158,5.0,8.0,59,0.00,,,-99.99,,2013-03-28 05:22:00,
2013-03-27 23:32:00,47.0,33.0,-100.00,SSE,158,5.0,8.0,59,0.00,,,-99.99,,2013-03-28 05:32:00,
2013-03-27 23:42:00,47.0,33.0,-100.00,SSE,158,5.0,8.0,59,0.00,,,-99.99,,2013-03-28 05:42:00,
2013-03-27 23:52:00,46.0,33.0,-100.00,SSW,202,5.0,6.0,60,0.00,,,-99.99,,2013-03-28 05:52:00,